createdAt,value
2019-01-24T00:01:31.764Z,46.00
2019-01-24T00:04:02.077Z,38.00
2019-01-24T00:07:21.158Z,35.33
2019-01-24T00:09:53.827Z,36.50
2019-01-24T00:16:20.271Z,25.33
2019-01-24T00:19:10.438Z,44.50
2019-01-24T00:22:20.761Z,40.50
2019-01-24T00:25:10.800Z,34.50
2019-01-24T00:27:43.492Z,42.00
2019-01-24T00:30:33.105Z,28.00
2019-01-24T00:33:06.650Z,44.50
2019-01-24T00:35:58.270Z,33.33
2019-01-24T00:38:50.407Z,42.00
2019-01-24T00:41:33.593Z,39.50
2019-01-24T00:47:17.226Z,39.50
2019-01-24T00:50:10.174Z,40.00
2019-01-24T00:52:59.898Z,58.00
2019-01-24T00:55:49.963Z,57.50
2019-01-24T00:58:39.961Z,37.00
2019-01-24T01:01:30.021Z,47.00
2019-01-24T01:04:01.218Z,40.67
2019-01-24T01:06:35.006Z,51.00
2019-01-24T01:09:09.101Z,45.00
2019-01-24T01:11:40.135Z,45.00
2019-01-24T01:17:13.421Z,41.00
2019-01-24T01:20:03.863Z,36.00
2019-01-24T01:22:35.130Z,43.50
2019-01-24T01:25:24.412Z,43.33
2019-01-24T01:27:55.573Z,54.00
2019-01-24T01:30:46.580Z,54.50
2019-01-24T01:33:17.657Z,59.50
2019-01-24T01:36:07.726Z,57.00
2019-01-24T01:38:38.764Z,41.00
2019-01-24T01:41:28.834Z,50.50
2019-01-24T01:43:59.408Z,38.67
2019-01-24T01:49:52.567Z,41.50
2019-01-24T01:52:22.899Z,38.67
2019-01-24T01:54:53.922Z,40.00
2019-01-24T01:57:25.094Z,38.00
2019-01-24T02:02:39.669Z,43.50
2019-01-24T02:05:11.054Z,55.50
2019-01-24T02:07:42.105Z,43.50
2019-01-24T02:10:15.331Z,46.00
2019-01-24T02:12:46.547Z,42.50
2019-01-24T02:18:23.870Z,57.50
2019-01-24T02:20:55.435Z,47.00
2019-01-24T02:24:08.384Z,40.50
2019-01-24T02:29:40.194Z,54.00
2019-01-24T02:32:42.798Z,32.67
2019-01-24T02:35:25.699Z,48.00
2019-01-24T02:38:02.927Z,50.50
2019-01-24T02:40:35.091Z,32.00
2019-01-24T02:43:06.379Z,38.00
2019-01-24T02:49:03.922Z,48.50
2019-01-24T02:51:49.523Z,45.50
2019-01-24T02:54:20.725Z,42.50
2019-01-24T03:03:07.260Z,45.50
2019-01-24T03:05:38.356Z,42.00
2019-01-24T03:11:27.558Z,47.50
2019-01-24T03:20:11.755Z,33.33
2019-01-24T03:23:11.538Z,47.50
2019-01-24T03:26:23.325Z,34.67
2019-01-24T03:31:37.086Z,51.00
2019-01-24T03:34:08.163Z,44.00
2019-01-24T03:37:18.727Z,44.50
2019-01-24T03:42:55.284Z,42.50
2019-01-24T03:48:44.297Z,45.00
2019-01-24T03:51:54.326Z,38.80
2019-01-24T03:54:40.345Z,41.50
2019-01-24T03:57:13.001Z,55.00
2019-01-24T03:59:43.235Z,34.00
2019-01-24T04:05:19.587Z,40.50
2019-01-24T04:07:50.735Z,60.00
2019-01-24T04:10:41.333Z,48.50
2019-01-24T04:13:12.493Z,51.00
2019-01-24T04:15:43.545Z,45.50
2019-01-24T04:18:33.571Z,50.00
2019-01-24T04:21:06.704Z,50.00
2019-01-24T04:23:37.792Z,46.00
2019-01-24T04:26:27.918Z,52.00
2019-01-24T04:28:59.030Z,42.00
2019-01-24T04:31:30.142Z,42.50
2019-01-24T04:34:01.621Z,44.00
2019-01-24T04:36:44.695Z,39.00
2019-01-24T04:39:36.323Z,44.00
2019-01-24T04:42:29.057Z,40.00
2019-01-24T04:47:42.830Z,36.00
2019-01-24T04:50:15.291Z,43.00
2019-01-24T04:53:05.321Z,40.00
2019-01-24T04:55:36.422Z,52.00
2019-01-24T04:58:06.718Z,37.33
2019-01-24T05:00:56.819Z,48.50
2019-01-24T05:03:31.463Z,57.00
2019-01-24T05:06:02.550Z,37.00
2019-01-24T05:08:52.630Z,43.50
2019-01-24T05:11:25.887Z,39.00
2019-01-24T05:17:11.125Z,27.00
2019-01-24T05:19:42.260Z,43.00
2019-01-24T05:22:13.426Z,45.00
2019-01-24T05:25:03.467Z,55.00
2019-01-24T05:30:23.447Z,68.25
2019-01-24T05:32:55.422Z,52.50
2019-01-24T05:35:34.505Z,52.00
2019-01-24T05:38:12.004Z,50.00
2019-01-24T05:41:04.087Z,48.00
2019-01-24T05:43:54.226Z,45.00
2019-01-24T05:49:58.822Z,40.50
2019-01-24T05:52:30.056Z,43.50
2019-01-24T05:55:20.093Z,49.00
2019-01-24T05:58:13.222Z,40.00
2019-01-24T06:00:49.055Z,30.00
2019-01-24T06:03:38.661Z,42.00
2019-01-24T06:06:28.707Z,32.00
2019-01-24T06:08:59.804Z,45.50
2019-01-24T06:11:30.986Z,40.00
2019-01-24T06:14:02.051Z,54.50
2019-01-24T06:16:51.018Z,32.00
2019-01-24T06:19:43.290Z,43.00
2019-01-24T06:22:33.367Z,38.00
2019-01-24T06:25:04.469Z,40.00
2019-01-24T06:30:44.343Z,34.67
2019-01-24T06:37:03.023Z,41.33
2019-01-24T06:39:34.377Z,37.50
2019-01-24T06:42:04.717Z,22.67
2019-01-24T06:44:36.864Z,32.67
2019-01-24T06:53:17.266Z,37.33
2019-01-24T06:55:48.462Z,43.00
2019-01-24T06:58:19.514Z,45.00
2019-01-24T07:03:52.067Z,44.00
2019-01-24T07:06:41.324Z,31.33
2019-01-24T07:09:30.589Z,25.33
2019-01-24T07:12:22.199Z,41.00
2019-01-24T07:15:15.432Z,42.50
2019-01-24T07:17:45.777Z,34.00
2019-01-24T07:20:53.926Z,39.33
2019-01-24T07:26:05.508Z,35.33
2019-01-24T07:28:36.546Z,45.00
2019-01-24T07:31:07.090Z,42.67
2019-01-24T07:33:57.159Z,38.50
2019-01-24T07:36:28.185Z,41.50
2019-01-24T07:39:35.273Z,24.00
2019-01-24T07:42:00.406Z,39.50
2019-01-24T07:44:49.660Z,36.67
2019-01-24T07:53:16.406Z,46.50
2019-01-24T07:55:57.290Z,32.67
2019-01-24T07:58:41.820Z,41.00
2019-01-24T08:01:39.496Z,44.50
2019-01-24T08:04:29.715Z,37.00
2019-01-24T08:07:00.922Z,52.50
2019-01-24T08:09:32.095Z,39.00
2019-01-24T08:12:26.332Z,30.50
2019-01-24T08:15:26.962Z,16.67
2019-01-24T08:17:58.693Z,41.00
2019-01-24T08:20:31.003Z,30.00
2019-01-24T08:26:03.512Z,42.00
2019-01-24T08:28:34.756Z,32.00
2019-01-24T08:31:25.018Z,43.50
2019-01-24T08:34:14.475Z,32.00
2019-01-24T08:36:56.078Z,40.00
2019-01-24T08:39:59.513Z,41.50
2019-01-24T08:42:30.801Z,50.50
2019-01-24T08:51:10.247Z,40.00
2019-01-24T08:53:41.467Z,42.00
2019-01-24T08:59:35.485Z,42.50
2019-01-24T09:02:07.011Z,36.50
2019-01-24T09:04:37.626Z,36.67
2019-01-24T09:07:11.680Z,35.00
2019-01-24T09:13:14.145Z,43.00
2019-01-24T09:28:14.851Z,37.00
2019-01-24T09:36:59.020Z,36.00
2019-01-24T09:39:49.239Z,45.50
2019-01-24T09:42:20.861Z,43.00
2019-01-24T09:44:52.438Z,42.00
2019-01-24T09:47:34.126Z,45.00
2019-01-24T09:50:06.276Z,46.00
2019-01-24T09:53:15.085Z,42.50
2019-01-24T09:58:29.477Z,31.33
2019-01-24T10:01:38.593Z,43.50
2019-01-24T10:07:38.962Z,43.00
2019-01-24T10:13:34.551Z,41.50
2019-01-24T10:16:24.686Z,50.00
2019-01-24T10:21:48.240Z,45.33
2019-01-24T10:24:18.776Z,28.67
2019-01-24T10:36:08.969Z,42.00
2019-01-24T10:38:50.512Z,41.50
2019-01-24T10:41:34.692Z,48.50
2019-01-24T10:43:55.529Z,42.00
2019-01-24T10:46:45.925Z,42.00
2019-01-24T10:52:23.471Z,28.50
2019-01-24T10:55:14.884Z,47.50
2019-01-24T10:57:46.424Z,46.50
2019-01-24T11:00:58.817Z,47.50
2019-01-24T11:03:48.507Z,26.00
2019-01-24T11:06:37.883Z,23.33
2019-01-24T11:09:10.152Z,36.50
2019-01-24T11:11:41.526Z,46.00
2019-01-24T11:14:31.871Z,59.50
2019-01-24T11:17:03.231Z,51.00
2019-01-24T11:22:57.858Z,48.50
2019-01-24T11:25:48.021Z,53.50
2019-01-24T11:28:21.734Z,48.50
2019-01-24T11:31:11.994Z,52.00
2019-01-24T11:33:55.224Z,61.00
2019-01-24T11:36:37.613Z,42.50
2019-01-24T11:39:11.697Z,51.00
2019-01-24T11:42:02.138Z,58.00
2019-01-24T11:44:38.464Z,48.50
2019-01-24T11:47:22.102Z,59.50
2019-01-24T11:49:42.929Z,51.50
2019-01-24T11:52:33.396Z,48.00
2019-01-24T11:58:54.120Z,55.00
2019-01-24T12:01:44.503Z,43.50
2019-01-24T12:04:34.883Z,49.00
2019-01-24T12:07:46.870Z,40.00
2019-01-24T12:10:35.780Z,48.50
2019-01-24T12:13:44.698Z,45.00
2019-01-24T12:16:15.892Z,47.00
2019-01-24T12:18:49.140Z,51.00
2019-01-24T12:21:23.267Z,60.00
2019-01-24T12:24:13.545Z,52.50
2019-01-24T12:30:06.039Z,61.00
2019-01-24T12:38:18.260Z,50.00
2019-01-24T12:43:50.021Z,53.00
2019-01-24T12:46:42.683Z,52.00
2019-01-24T12:49:32.741Z,52.50
2019-01-24T12:52:23.167Z,58.50
2019-01-24T12:55:11.916Z,42.50
2019-01-24T12:58:02.032Z,64.00
2019-01-24T13:00:55.953Z,50.50
2019-01-24T13:03:59.776Z,63.25
2019-01-24T13:06:53.199Z,41.33
2019-01-24T13:12:38.149Z,49.50
2019-01-24T13:15:09.943Z,48.00
2019-01-24T13:17:42.824Z,51.50
2019-01-24T13:20:17.144Z,49.50
2019-01-24T13:22:51.199Z,44.00
2019-01-24T13:25:44.998Z,46.00
2019-01-24T13:28:38.144Z,57.50
2019-01-24T13:31:27.325Z,60.50
2019-01-24T13:33:58.618Z,57.00
2019-01-24T13:37:10.730Z,53.20
2019-01-24T13:40:05.795Z,61.25
2019-01-24T13:42:45.232Z,52.50
2019-01-24T13:51:54.005Z,50.00
2019-01-24T13:54:44.233Z,48.50
2019-01-24T13:57:15.736Z,50.00
2019-01-24T14:00:05.818Z,60.00
2019-01-24T14:05:40.386Z,55.00
2019-01-24T14:08:30.168Z,51.00
2019-01-24T14:11:22.537Z,53.50
2019-01-24T14:14:12.724Z,59.50
2019-01-24T14:16:44.065Z,48.00
2019-01-24T14:19:15.515Z,47.00
2019-01-24T14:21:49.886Z,49.50
2019-01-24T14:24:26.228Z,58.50
2019-01-24T14:26:57.438Z,54.00
2019-01-24T14:29:32.964Z,58.00
2019-01-24T14:32:04.269Z,62.00
2019-01-24T14:35:13.127Z,51.00
2019-01-24T14:40:54.455Z,51.50
2019-01-24T14:43:44.830Z,49.00
2019-01-24T14:52:57.155Z,46.00
2019-01-24T14:55:47.278Z,56.50
2019-01-24T14:58:37.473Z,45.50
2019-01-24T15:01:16.455Z,31.33
2019-01-24T15:03:52.213Z,35.50
2019-01-24T15:06:22.666Z,30.67
2019-01-24T15:08:53.982Z,37.50
2019-01-24T15:11:30.681Z,41.00
2019-01-24T15:14:03.833Z,31.00
2019-01-24T15:16:34.311Z,32.67
2019-01-24T15:25:49.167Z,37.50
2019-01-24T15:30:52.219Z,41.50
2019-01-24T15:34:01.477Z,47.00
2019-01-24T15:39:38.591Z,46.00
2019-01-24T15:42:32.471Z,45.00
2019-01-24T15:45:01.471Z,39.00
2019-01-24T15:47:35.546Z,55.50
2019-01-24T15:50:44.981Z,60.00
2019-01-24T15:53:18.500Z,48.00
2019-01-24T15:56:08.628Z,48.50
2019-01-24T15:58:54.472Z,48.00
2019-01-24T16:07:28.615Z,42.00
2019-01-24T16:10:19.007Z,47.50
2019-01-24T16:13:12.441Z,53.00
2019-01-24T16:16:03.909Z,49.00
2019-01-24T16:21:44.149Z,46.00
2019-01-24T16:24:53.069Z,46.50
2019-01-24T16:27:24.406Z,51.50
2019-01-24T16:32:58.779Z,48.50
2019-01-24T16:35:54.815Z,48.50
2019-01-24T16:38:46.562Z,42.50
2019-01-24T16:41:36.801Z,48.50
2019-01-24T16:44:10.547Z,42.00
2019-01-24T16:46:41.845Z,44.00
2019-01-24T16:49:35.215Z,45.50
2019-01-24T16:52:28.253Z,48.50
2019-01-24T16:54:59.230Z,41.00
2019-01-24T17:04:00.767Z,44.50
2019-01-24T17:07:11.364Z,59.50
2019-01-24T17:09:42.821Z,44.50
2019-01-24T17:17:58.451Z,45.00
2019-01-24T17:23:29.966Z,49.00
2019-01-24T17:26:01.095Z,51.00
2019-01-24T17:28:51.106Z,51.50
2019-01-24T17:34:24.532Z,49.33
2019-01-24T17:36:58.159Z,59.00
2019-01-24T17:39:29.228Z,45.50
2019-01-24T17:42:39.442Z,48.50
2019-01-24T17:48:13.721Z,48.50
2019-01-24T17:50:44.726Z,56.50
2019-01-24T17:53:36.026Z,59.75
2019-01-24T17:56:07.112Z,49.50
2019-01-24T17:58:42.624Z,42.50
2019-01-24T18:01:16.039Z,40.00
2019-01-24T18:06:51.146Z,54.00
2019-01-24T18:09:24.912Z,50.50
2019-01-24T18:14:59.965Z,60.50
2019-01-24T18:17:52.318Z,47.00
2019-01-24T18:20:25.121Z,52.50
2019-01-24T18:26:06.939Z,53.00
2019-01-24T18:28:41.237Z,58.50
2019-01-24T18:31:12.230Z,45.00
2019-01-24T18:34:02.695Z,59.00
2019-01-24T18:36:45.387Z,54.50
2019-01-24T18:42:38.720Z,47.00
2019-01-24T18:48:02.882Z,61.00
2019-01-24T18:54:08.841Z,50.00
2019-01-24T19:03:25.733Z,58.50
2019-01-24T19:06:00.729Z,61.00
2019-01-24T19:12:01.273Z,57.00
2019-01-24T19:17:53.217Z,61.50
2019-01-24T19:20:35.577Z,60.00
2019-01-24T19:27:11.912Z,49.50
2019-01-24T19:36:31.941Z,53.00
2019-01-24T19:39:14.139Z,63.00
2019-01-24T19:41:49.763Z,45.00
2019-01-24T19:44:20.720Z,52.50
2019-01-24T19:46:52.124Z,47.00
2019-01-24T19:52:45.024Z,60.00
2019-01-24T19:55:39.361Z,44.00
2019-01-24T20:04:06.119Z,38.50
2019-01-24T20:06:45.640Z,53.50
2019-01-24T20:09:42.545Z,36.67
2019-01-24T20:22:43.209Z,33.00
2019-01-24T20:24:59.767Z,40.00
2019-01-24T20:27:39.308Z,32.00
2019-01-24T20:36:19.317Z,35.00
2019-01-24T20:39:09.746Z,32.00
2019-01-24T20:42:00.069Z,32.00
2019-01-24T20:53:19.819Z,32.00
2019-01-24T20:55:50.418Z,32.67
2019-01-24T20:59:12.572Z,37.00
2019-01-24T21:02:03.372Z,31.50
2019-01-24T21:04:23.980Z,30.67
2019-01-24T21:09:50.184Z,32.00
2019-01-24T21:12:39.141Z,26.67
2019-01-24T21:18:01.368Z,27.00
2019-01-24T21:20:31.624Z,30.00
2019-01-24T21:24:01.033Z,26.00
2019-01-24T21:26:21.406Z,33.33
2019-01-24T21:29:13.883Z,28.50
2019-01-24T21:31:48.894Z,29.33
2019-01-24T21:37:20.978Z,32.00
2019-01-24T21:40:13.012Z,32.00
2019-01-24T21:42:46.313Z,35.00
2019-01-24T21:45:19.298Z,28.67
2019-01-24T21:47:49.559Z,27.33
2019-01-24T21:50:21.072Z,28.67
2019-01-24T21:53:10.351Z,23.33
2019-01-24T21:59:05.762Z,23.33
2019-01-24T22:01:55.759Z,26.00
2019-01-24T22:04:46.839Z,24.00
2019-01-24T22:10:17.689Z,29.33
2019-01-24T22:12:47.958Z,21.33
2019-01-24T22:15:40.722Z,28.00
2019-01-24T22:18:12.413Z,15.33
2019-01-24T22:24:35.850Z,26.00
2019-01-24T22:27:27.351Z,26.00
2019-01-24T22:29:59.198Z,20.67
2019-01-24T22:33:08.567Z,24.67
2019-01-24T22:39:09.899Z,19.33
2019-01-24T22:41:59.326Z,38.67
2019-01-24T22:44:48.567Z,22.67
2019-01-24T22:53:06.820Z,24.67
2019-01-24T22:55:56.893Z,31.50
2019-01-24T22:58:27.550Z,26.67
2019-01-24T23:01:50.150Z,26.00
2019-01-24T23:07:38.644Z,30.67
2019-01-24T23:10:28.288Z,24.67
2019-01-24T23:13:36.443Z,24.67
2019-01-24T23:16:06.925Z,34.67
2019-01-24T23:18:37.276Z,31.33
2019-01-24T23:21:26.666Z,25.33
2019-01-24T23:24:30.454Z,35.00
2019-01-24T23:27:58.155Z,33.00
2019-01-24T23:34:02.345Z,28.00
2019-01-24T23:39:16.165Z,33.33
2019-01-24T23:42:05.585Z,37.33
2019-01-24T23:44:35.906Z,28.00
2019-01-24T23:47:27.106Z,26.67
2019-01-24T23:50:00.583Z,28.50
2019-01-24T23:52:51.606Z,29.33
2019-01-24T23:55:22.768Z,25.50
2019-01-24T23:58:14.050Z,26.00
